sensor_id;sensor_type;location;lat;lon;timestamp;P1;durP1;ratioP1;P2;durP2;ratioP2
15643;SDS011;7921;43.586;1.408;2023-06-05T00:00:27;0.82;;;0.82;;
15643;SDS011;7921;43.586;1.408;2023-06-05T00:02:53;2.17;;;1.30;;
15643;SDS011;7921;43.586;1.408;2023-06-05T00:05:18;1.30;;;1.20;;
15643;SDS011;7921;43.586;1.408;2023-06-05T00:07:44;1.35;;;1.20;;
15643;SDS011;7921;43.586;1.408;2023-06-05T00:10:09;1.42;;;1.20;;
15643;SDS011;7921;43.586;1.408;2023-06-05T00:12:35;2.00;;;1.20;;
15643;SDS011;7921;43.586;1.408;2023-06-05T00:15:01;1.10;;;1.10;;
15643;SDS011;7921;43.586;1.408;2023-06-05T00:17:27;1.40;;;1.27;;
15643;SDS011;7921;43.586;1.408;2023-06-05T00:19:53;1.02;;;1.02;;
15643;SDS011;7921;43.586;1.408;2023-06-05T00:22:18;1.13;;;1.10;;
15643;SDS011;7921;43.586;1.408;2023-06-05T00:24:44;2.30;;;1.27;;
15643;SDS011;7921;43.586;1.408;2023-06-05T00:27:10;3.00;;;1.20;;
15643;SDS011;7921;43.586;1.408;2023-06-05T00:29:35;3.13;;;1.10;;
15643;SDS011;7921;43.586;1.408;2023-06-05T00:32:00;1.40;;;1.30;;
15643;SDS011;7921;43.586;1.408;2023-06-05T00:34:26;1.20;;;1.10;;
15643;SDS011;7921;43.586;1.408;2023-06-05T00:36:52;1.42;;;1.23;;
15643;SDS011;7921;43.586;1.408;2023-06-05T00:39:18;1.27;;;1.17;;
15643;SDS011;7921;43.586;1.408;2023-06-05T00:41:44;1.00;;;0.95;;
15643;SDS011;7921;43.586;1.408;2023-06-05T00:44:10;1.10;;;1.10;;
15643;SDS011;7921;43.586;1.408;2023-06-05T00:46:36;1.30;;;1.20;;
15643;SDS011;7921;43.586;1.408;2023-06-05T00:49:01;1.38;;;1.30;;
15643;SDS011;7921;43.586;1.408;2023-06-05T00:51:27;1.30;;;1.20;;
15643;SDS011;7921;43.586;1.408;2023-06-05T00:53:52;2.17;;;1.33;;
15643;SDS011;7921;43.586;1.408;2023-06-05T00:56:18;1.02;;;1.02;;
15643;SDS011;7921;43.586;1.408;2023-06-05T00:58:45;1.80;;;1.50;;
15643;SDS011;7921;43.586;1.408;2023-06-05T01:01:11;1.73;;;1.58;;
15643;SDS011;7921;43.586;1.408;2023-06-05T01:03:37;1.40;;;1.20;;
15643;SDS011;7921;43.586;1.408;2023-06-05T01:06:04;1.60;;;1.02;;
15643;SDS011;7921;43.586;1.408;2023-06-05T01:08:33;1.33;;;1.23;;
15643;SDS011;7921;43.586;1.408;2023-06-05T01:11:03;1.58;;;1.40;;
15643;SDS011;7921;43.586;1.408;2023-06-05T01:13:34;2.25;;;1.30;;
15643;SDS011;7921;43.586;1.408;2023-06-05T01:16:00;1.85;;;1.27;;
15643;SDS011;7921;43.586;1.408;2023-06-05T01:18:29;2.70;;;1.55;;
15643;SDS011;7921;43.586;1.408;2023-06-05T01:20:59;1.52;;;1.30;;
15643;SDS011;7921;43.586;1.408;2023-06-05T01:23:26;1.17;;;1.08;;
15643;SDS011;7921;43.586;1.408;2023-06-05T01:25:56;1.50;;;1.40;;
15643;SDS011;7921;43.586;1.408;2023-06-05T01:28:23;1.98;;;1.50;;
15643;SDS011;7921;43.586;1.408;2023-06-05T01:33:37;1.40;;;1.30;;
15643;SDS011;7921;43.586;1.408;2023-06-05T01:36:11;1.42;;;1.30;;
15643;SDS011;7921;43.586;1.408;2023-06-05T01:38:38;1.85;;;1.50;;
15643;SDS011;7921;43.586;1.408;2023-06-05T01:41:04;1.30;;;1.23;;
15643;SDS011;7921;43.586;1.408;2023-06-05T01:43:31;1.50;;;1.40;;
15643;SDS011;7921;43.586;1.408;2023-06-05T01:45:57;2.22;;;1.40;;
15643;SDS011;7921;43.586;1.408;2023-06-05T01:48:24;1.80;;;1.38;;
15643;SDS011;7921;43.586;1.408;2023-06-05T01:50:54;1.73;;;1.42;;
15643;SDS011;7921;43.586;1.408;2023-06-05T01:53:20;1.95;;;1.52;;
15643;SDS011;7921;43.586;1.408;2023-06-05T01:55:46;1.35;;;1.20;;
15643;SDS011;7921;43.586;1.408;2023-06-05T01:58:11;1.83;;;1.40;;
15643;SDS011;7921;43.586;1.408;2023-06-05T02:00:37;1.50;;;1.30;;
15643;SDS011;7921;43.586;1.408;2023-06-05T02:03:02;1.55;;;1.45;;
15643;SDS011;7921;43.586;1.408;2023-06-05T02:05:28;1.60;;;1.50;;
15643;SDS011;7921;43.586;1.408;2023-06-05T02:07:54;1.60;;;1.50;;
15643;SDS011;7921;43.586;1.408;2023-06-05T02:10:23;1.80;;;1.35;;
15643;SDS011;7921;43.586;1.408;2023-06-05T02:12:49;1.40;;;1.30;;
15643;SDS011;7921;43.586;1.408;2023-06-05T02:15:14;1.77;;;1.67;;
15643;SDS011;7921;43.586;1.408;2023-06-05T02:17:43;2.20;;;1.48;;
15643;SDS011;7921;43.586;1.408;2023-06-05T02:20:15;1.52;;;1.42;;
15643;SDS011;7921;43.586;1.408;2023-06-05T02:22:41;1.67;;;1.58;;
15643;SDS011;7921;43.586;1.408;2023-06-05T02:25:07;1.83;;;1.70;;
15643;SDS011;7921;43.586;1.408;2023-06-05T02:27:33;4.25;;;1.65;;
15643;SDS011;7921;43.586;1.408;2023-06-05T02:29:59;1.52;;;1.42;;
15643;SDS011;7921;43.586;1.408;2023-06-05T02:32:24;2.00;;;1.60;;
15643;SDS011;7921;43.586;1.408;2023-06-05T02:34:51;1.92;;;1.65;;
15643;SDS011;7921;43.586;1.408;2023-06-05T02:37:21;1.60;;;1.50;;
15643;SDS011;7921;43.586;1.408;2023-06-05T02:39:48;1.67;;;1.58;;
15643;SDS011;7921;43.586;1.408;2023-06-05T02:42:13;1.70;;;1.60;;
15643;SDS011;7921;43.586;1.408;2023-06-05T02:44:38;1.70;;;1.50;;
15643;SDS011;7921;43.586;1.408;2023-06-05T02:47:04;1.77;;;1.65;;
15643;SDS011;7921;43.586;1.408;2023-06-05T02:49:29;2.15;;;1.73;;
15643;SDS011;7921;43.586;1.408;2023-06-05T02:51:55;1.80;;;1.70;;
15643;SDS011;7921;43.586;1.408;2023-06-05T02:54:21;2.22;;;1.92;;
15643;SDS011;7921;43.586;1.408;2023-06-05T02:56:46;1.98;;;1.83;;
15643;SDS011;7921;43.586;1.408;2023-06-05T02:59:12;2.10;;;1.70;;
15643;SDS011;7921;43.586;1.408;2023-06-05T03:01:37;2.10;;;1.90;;
15643;SDS011;7921;43.586;1.408;2023-06-05T03:04:03;2.10;;;1.90;;
15643;SDS011;7921;43.586;1.408;2023-06-05T03:06:29;1.77;;;1.60;;
15643;SDS011;7921;43.586;1.408;2023-06-05T03:08:58;2.10;;;2.00;;
15643;SDS011;7921;43.586;1.408;2023-06-05T03:11:24;2.20;;;1.90;;
15643;SDS011;7921;43.586;1.408;2023-06-05T03:13:50;2.88;;;1.98;;
15643;SDS011;7921;43.586;1.408;2023-06-05T03:16:16;1.85;;;1.75;;
15643;SDS011;7921;43.586;1.408;2023-06-05T03:18:42;2.30;;;2.10;;
15643;SDS011;7921;43.586;1.408;2023-06-05T03:21:08;2.00;;;1.90;;
15643;SDS011;7921;43.586;1.408;2023-06-05T03:23:35;2.72;;;2.00;;
15643;SDS011;7921;43.586;1.408;2023-06-05T03:26:00;3.15;;;1.85;;
15643;SDS011;7921;43.586;1.408;2023-06-05T03:28:29;2.00;;;1.90;;
15643;SDS011;7921;43.586;1.408;2023-06-05T03:30:55;2.05;;;1.88;;
15643;SDS011;7921;43.586;1.408;2023-06-05T03:33:21;2.50;;;2.30;;
15643;SDS011;7921;43.586;1.408;2023-06-05T03:35:46;2.60;;;2.30;;
15643;SDS011;7921;43.586;1.408;2023-06-05T03:38:12;1.67;;;1.58;;
15643;SDS011;7921;43.586;1.408;2023-06-05T03:40:38;1.95;;;1.85;;
15643;SDS011;7921;43.586;1.408;2023-06-05T03:43:04;1.95;;;1.85;;
15643;SDS011;7921;43.586;1.408;2023-06-05T03:45:36;2.38;;;2.00;;
15643;SDS011;7921;43.586;1.408;2023-06-05T03:48:04;2.88;;;2.67;;
15643;SDS011;7921;43.586;1.408;2023-06-05T03:50:30;2.08;;;1.90;;
15643;SDS011;7921;43.586;1.408;2023-06-05T03:52:57;1.95;;;1.75;;
15643;SDS011;7921;43.586;1.408;2023-06-05T03:55:33;2.40;;;2.05;;
15643;SDS011;7921;43.586;1.408;2023-06-05T03:58:10;2.80;;;2.20;;
15643;SDS011;7921;43.586;1.408;2023-06-05T04:00:40;2.50;;;2.30;;
15643;SDS011;7921;43.586;1.408;2023-06-05T04:03:07;2.15;;;2.05;;
15643;SDS011;7921;43.586;1.408;2023-06-05T04:05:34;2.60;;;1.92;;
15643;SDS011;7921;43.586;1.408;2023-06-05T04:08:00;2.30;;;2.20;;
15643;SDS011;7921;43.586;1.408;2023-06-05T04:10:26;2.22;;;2.13;;
15643;SDS011;7921;43.586;1.408;2023-06-05T04:12:51;2.70;;;2.50;;
15643;SDS011;7921;43.586;1.408;2023-06-05T04:15:17;2.70;;;2.50;;
15643;SDS011;7921;43.586;1.408;2023-06-05T04:17:43;2.55;;;2.25;;
15643;SDS011;7921;43.586;1.408;2023-06-05T04:20:08;2.28;;;2.08;;
15643;SDS011;7921;43.586;1.408;2023-06-05T04:22:39;2.45;;;2.25;;
15643;SDS011;7921;43.586;1.408;2023-06-05T04:25:05;2.13;;;1.92;;
15643;SDS011;7921;43.586;1.408;2023-06-05T04:27:30;2.25;;;2.15;;
15643;SDS011;7921;43.586;1.408;2023-06-05T04:29:56;2.53;;;2.13;;
15643;SDS011;7921;43.586;1.408;2023-06-05T04:32:21;3.72;;;2.13;;
15643;SDS011;7921;43.586;1.408;2023-06-05T04:34:47;2.25;;;2.00;;
15643;SDS011;7921;43.586;1.408;2023-06-05T04:37:12;2.85;;;2.33;;
15643;SDS011;7921;43.586;1.408;2023-06-05T04:39:38;2.40;;;2.00;;
15643;SDS011;7921;43.586;1.408;2023-06-05T04:42:03;2.00;;;1.90;;
15643;SDS011;7921;43.586;1.408;2023-06-05T04:44:29;2.13;;;2.03;;
15643;SDS011;7921;43.586;1.408;2023-06-05T04:46:55;1.88;;;1.77;;
15643;SDS011;7921;43.586;1.408;2023-06-05T04:49:21;2.65;;;2.20;;
15643;SDS011;7921;43.586;1.408;2023-06-05T04:51:48;2.50;;;2.30;;
15643;SDS011;7921;43.586;1.408;2023-06-05T04:54:13;2.47;;;2.28;;
15643;SDS011;7921;43.586;1.408;2023-06-05T04:56:39;2.20;;;2.08;;
15643;SDS011;7921;43.586;1.408;2023-06-05T04:59:05;2.58;;;2.38;;
15643;SDS011;7921;43.586;1.408;2023-06-05T05:01:31;2.72;;;2.40;;
15643;SDS011;7921;43.586;1.408;2023-06-05T05:03:57;3.53;;;2.50;;
15643;SDS011;7921;43.586;1.408;2023-06-05T05:06:24;2.58;;;2.38;;
15643;SDS011;7921;43.586;1.408;2023-06-05T05:08:50;2.20;;;2.00;;
15643;SDS011;7921;43.586;1.408;2023-06-05T05:11:16;3.00;;;2.00;;
15643;SDS011;7921;43.586;1.408;2023-06-05T05:13:42;2.05;;;1.95;;
15643;SDS011;7921;43.586;1.408;2023-06-05T05:16:08;2.47;;;2.28;;
15643;SDS011;7921;43.586;1.408;2023-06-05T05:18:38;2.50;;;2.30;;
15643;SDS011;7921;43.586;1.408;2023-06-05T05:21:05;2.50;;;2.30;;
15643;SDS011;7921;43.586;1.408;2023-06-05T05:23:31;2.75;;;2.55;;
15643;SDS011;7921;43.586;1.408;2023-06-05T05:25:57;2.75;;;2.53;;
15643;SDS011;7921;43.586;1.408;2023-06-05T05:28:22;3.20;;;2.35;;
15643;SDS011;7921;43.586;1.408;2023-06-05T05:30:48;3.20;;;2.90;;
15643;SDS011;7921;43.586;1.408;2023-06-05T05:33:13;2.72;;;2.50;;
15643;SDS011;7921;43.586;1.408;2023-06-05T05:35:40;2.60;;;2.42;;
15643;SDS011;7921;43.586;1.408;2023-06-05T05:38:05;2.55;;;2.40;;
15643;SDS011;7921;43.586;1.408;2023-06-05T05:40:31;2.67;;;2.47;;
15643;SDS011;7921;43.586;1.408;2023-06-05T05:42:56;3.17;;;2.88;;
15643;SDS011;7921;43.586;1.408;2023-06-05T05:45:22;2.75;;;2.55;;
15643;SDS011;7921;43.586;1.408;2023-06-05T05:47:47;2.60;;;2.50;;
15643;SDS011;7921;43.586;1.408;2023-06-05T05:50:12;2.83;;;2.63;;
15643;SDS011;7921;43.586;1.408;2023-06-05T05:52:38;2.35;;;2.17;;
15643;SDS011;7921;43.586;1.408;2023-06-05T05:55:04;3.42;;;2.17;;
15643;SDS011;7921;43.586;1.408;2023-06-05T05:57:30;3.35;;;2.60;;
15643;SDS011;7921;43.586;1.408;2023-06-05T05:59:55;3.20;;;2.85;;
15643;SDS011;7921;43.586;1.408;2023-06-05T06:02:21;2.90;;;2.53;;
15643;SDS011;7921;43.586;1.408;2023-06-05T06:04:46;3.15;;;2.40;;
15643;SDS011;7921;43.586;1.408;2023-06-05T06:07:13;2.50;;;2.30;;
15643;SDS011;7921;43.586;1.408;2023-06-05T06:09:39;2.65;;;2.45;;
15643;SDS011;7921;43.586;1.408;2023-06-05T06:12:04;3.15;;;2.40;;
15643;SDS011;7921;43.586;1.408;2023-06-05T06:14:32;2.60;;;2.40;;
15643;SDS011;7921;43.586;1.408;2023-06-05T06:16:58;2.53;;;2.20;;
15643;SDS011;7921;43.586;1.408;2023-06-05T06:19:24;2.70;;;2.50;;
15643;SDS011;7921;43.586;1.408;2023-06-05T06:21:50;2.88;;;2.58;;
15643;SDS011;7921;43.586;1.408;2023-06-05T06:24:16;2.50;;;2.30;;
15643;SDS011;7921;43.586;1.408;2023-06-05T06:26:46;2.78;;;2.58;;
15643;SDS011;7921;43.586;1.408;2023-06-05T06:29:13;2.97;;;2.78;;
15643;SDS011;7921;43.586;1.408;2023-06-05T06:31:39;2.55;;;2.28;;
15643;SDS011;7921;43.586;1.408;2023-06-05T06:34:05;2.50;;;2.30;;
15643;SDS011;7921;43.586;1.408;2023-06-05T06:36:30;5.00;;;2.33;;
15643;SDS011;7921;43.586;1.408;2023-06-05T06:38:55;2.78;;;2.00;;
15643;SDS011;7921;43.586;1.408;2023-06-05T06:41:21;3.05;;;2.50;;
15643;SDS011;7921;43.586;1.408;2023-06-05T06:43:47;3.65;;;2.60;;
15643;SDS011;7921;43.586;1.408;2023-06-05T06:46:12;3.17;;;2.05;;
15643;SDS011;7921;43.586;1.408;2023-06-05T06:48:38;2.38;;;2.10;;
15643;SDS011;7921;43.586;1.408;2023-06-05T06:51:03;2.95;;;2.40;;
15643;SDS011;7921;43.586;1.408;2023-06-05T06:53:29;2.75;;;2.55;;
15643;SDS011;7921;43.586;1.408;2023-06-05T06:55:54;2.80;;;2.60;;
15643;SDS011;7921;43.586;1.408;2023-06-05T06:58:20;2.20;;;2.10;;
15643;SDS011;7921;43.586;1.408;2023-06-05T07:00:45;3.50;;;2.20;;
15643;SDS011;7921;43.586;1.408;2023-06-05T07:03:12;2.90;;;2.33;;
15643;SDS011;7921;43.586;1.408;2023-06-05T07:05:37;2.30;;;2.10;;
15643;SDS011;7921;43.586;1.408;2023-06-05T07:08:03;2.53;;;2.33;;
15643;SDS011;7921;43.586;1.408;2023-06-05T07:10:28;2.55;;;2.35;;
15643;SDS011;7921;43.586;1.408;2023-06-05T07:12:54;2.20;;;1.83;;
15643;SDS011;7921;43.586;1.408;2023-06-05T07:15:19;2.20;;;2.00;;
15643;SDS011;7921;43.586;1.408;2023-06-05T07:17:45;2.53;;;2.10;;
15643;SDS011;7921;43.586;1.408;2023-06-05T07:20:10;2.20;;;2.00;;
15643;SDS011;7921;43.586;1.408;2023-06-05T07:22:37;2.35;;;1.67;;
15643;SDS011;7921;43.586;1.408;2023-06-05T07:25:07;2.38;;;2.03;;
15643;SDS011;7921;43.586;1.408;2023-06-05T07:27:32;2.38;;;1.92;;
15643;SDS011;7921;43.586;1.408;2023-06-05T07:29:57;1.98;;;1.88;;
15643;SDS011;7921;43.586;1.408;2023-06-05T07:32:24;2.42;;;2.22;;
15643;SDS011;7921;43.586;1.408;2023-06-05T07:34:50;2.30;;;2.10;;
15643;SDS011;7921;43.586;1.408;2023-06-05T07:37:16;2.83;;;2.10;;
15643;SDS011;7921;43.586;1.408;2023-06-05T07:39:41;2.80;;;2.60;;
15643;SDS011;7921;43.586;1.408;2023-06-05T07:42:06;2.75;;;2.28;;
15643;SDS011;7921;43.586;1.408;2023-06-05T07:44:32;3.30;;;2.90;;
15643;SDS011;7921;43.586;1.408;2023-06-05T07:46:57;2.30;;;2.13;;
15643;SDS011;7921;43.586;1.408;2023-06-05T07:49:23;3.28;;;2.33;;
15643;SDS011;7921;43.586;1.408;2023-06-05T07:51:49;2.70;;;2.50;;
15643;SDS011;7921;43.586;1.408;2023-06-05T07:54:16;2.67;;;2.33;;
15643;SDS011;7921;43.586;1.408;2023-06-05T07:56:41;2.53;;;2.25;;
15643;SDS011;7921;43.586;1.408;2023-06-05T07:59:08;2.35;;;2.15;;
15643;SDS011;7921;43.586;1.408;2023-06-05T08:01:33;2.40;;;2.20;;
15643;SDS011;7921;43.586;1.408;2023-06-05T08:04:01;2.38;;;2.17;;
15643;SDS011;7921;43.586;1.408;2023-06-05T08:06:29;3.50;;;3.20;;
15643;SDS011;7921;43.586;1.408;2023-06-05T08:08:55;3.80;;;3.38;;
15643;SDS011;7921;43.586;1.408;2023-06-05T08:11:20;3.60;;;3.30;;
15643;SDS011;7921;43.586;1.408;2023-06-05T08:13:46;3.08;;;2.60;;
15643;SDS011;7921;43.586;1.408;2023-06-05T08:16:11;2.58;;;2.38;;
15643;SDS011;7921;43.586;1.408;2023-06-05T08:18:37;2.85;;;2.65;;
15643;SDS011;7921;43.586;1.408;2023-06-05T08:21:02;2.97;;;2.78;;
15643;SDS011;7921;43.586;1.408;2023-06-05T08:23:28;2.92;;;2.03;;
15643;SDS011;7921;43.586;1.408;2023-06-05T08:25:53;2.47;;;2.28;;
15643;SDS011;7921;43.586;1.408;2023-06-05T08:28:20;3.47;;;2.25;;
15643;SDS011;7921;43.586;1.408;2023-06-05T08:30:45;2.50;;;2.30;;
15643;SDS011;7921;43.586;1.408;2023-06-05T08:33:10;2.50;;;2.30;;
15643;SDS011;7921;43.586;1.408;2023-06-05T08:35:39;2.40;;;2.20;;
15643;SDS011;7921;43.586;1.408;2023-06-05T08:38:05;2.92;;;1.77;;
15643;SDS011;7921;43.586;1.408;2023-06-05T08:40:31;2.05;;;1.95;;
15643;SDS011;7921;43.586;1.408;2023-06-05T08:42:59;3.45;;;2.00;;
15643;SDS011;7921;43.586;1.408;2023-06-05T08:45:25;2.95;;;2.50;;
15643;SDS011;7921;43.586;1.408;2023-06-05T08:47:50;2.22;;;1.85;;
15643;SDS011;7921;43.586;1.408;2023-06-05T08:50:17;2.28;;;2.00;;
15643;SDS011;7921;43.586;1.408;2023-06-05T08:52:43;2.40;;;1.95;;
15643;SDS011;7921;43.586;1.408;2023-06-05T08:55:10;2.97;;;2.15;;
15643;SDS011;7921;43.586;1.408;2023-06-05T08:57:40;2.20;;;2.00;;
15643;SDS011;7921;43.586;1.408;2023-06-05T09:00:06;3.22;;;1.90;;
15643;SDS011;7921;43.586;1.408;2023-06-05T09:02:33;2.28;;;1.98;;
15643;SDS011;7921;43.586;1.408;2023-06-05T09:04:58;2.72;;;2.03;;
15643;SDS011;7921;43.586;1.408;2023-06-05T09:07:27;2.03;;;1.88;;
15643;SDS011;7921;43.586;1.408;2023-06-05T09:09:54;2.25;;;2.00;;
15643;SDS011;7921;43.586;1.408;2023-06-05T09:12:19;2.20;;;2.00;;
15643;SDS011;7921;43.586;1.408;2023-06-05T09:14:44;2.67;;;2.47;;
15643;SDS011;7921;43.586;1.408;2023-06-05T09:17:13;3.78;;;2.30;;
15643;SDS011;7921;43.586;1.408;2023-06-05T09:19:39;2.58;;;2.38;;
15643;SDS011;7921;43.586;1.408;2023-06-05T09:22:09;2.50;;;2.30;;
15643;SDS011;7921;43.586;1.408;2023-06-05T09:24:36;2.22;;;1.90;;
15643;SDS011;7921;43.586;1.408;2023-06-05T09:27:03;2.25;;;2.05;;
15643;SDS011;7921;43.586;1.408;2023-06-05T09:29:40;2.58;;;2.28;;
15643;SDS011;7921;43.586;1.408;2023-06-05T09:32:07;2.25;;;2.05;;
15643;SDS011;7921;43.586;1.408;2023-06-05T09:34:35;2.38;;;2.17;;
15643;SDS011;7921;43.586;1.408;2023-06-05T09:37:05;2.60;;;2.40;;
15643;SDS011;7921;43.586;1.408;2023-06-05T09:39:38;2.50;;;2.30;;
15643;SDS011;7921;43.586;1.408;2023-06-05T09:42:05;2.58;;;2.00;;
15643;SDS011;7921;43.586;1.408;2023-06-05T09:44:31;2.63;;;2.15;;
15643;SDS011;7921;43.586;1.408;2023-06-05T09:49:31;2.28;;;2.03;;
15643;SDS011;7921;43.586;1.408;2023-06-05T09:52:00;3.03;;;2.10;;
15643;SDS011;7921;43.586;1.408;2023-06-05T09:54:26;2.22;;;2.03;;
15643;SDS011;7921;43.586;1.408;2023-06-05T09:56:56;2.85;;;2.13;;
15643;SDS011;7921;43.586;1.408;2023-06-05T09:59:25;2.40;;;2.20;;
15643;SDS011;7921;43.586;1.408;2023-06-05T10:01:53;2.70;;;2.10;;
15643;SDS011;7921;43.586;1.408;2023-06-05T10:04:20;1.90;;;1.75;;
15643;SDS011;7921;43.586;1.408;2023-06-05T10:06:48;3.30;;;2.22;;
15643;SDS011;7921;43.586;1.408;2023-06-05T10:09:15;3.45;;;2.17;;
15643;SDS011;7921;43.586;1.408;2023-06-05T10:11:41;2.30;;;1.90;;
15643;SDS011;7921;43.586;1.408;2023-06-05T10:14:06;2.50;;;2.10;;
15643;SDS011;7921;43.586;1.408;2023-06-05T10:16:34;2.80;;;1.85;;
15643;SDS011;7921;43.586;1.408;2023-06-05T10:18:59;2.55;;;2.33;;
15643;SDS011;7921;43.586;1.408;2023-06-05T10:21:25;2.97;;;2.35;;
15643;SDS011;7921;43.586;1.408;2023-06-05T10:23:52;2.90;;;1.98;;
15643;SDS011;7921;43.586;1.408;2023-06-05T10:32:07;2.83;;;2.55;;
15643;SDS011;7921;43.586;1.408;2023-06-05T10:34:48;2.40;;;2.28;;
15643;SDS011;7921;43.586;1.408;2023-06-05T10:40:05;2.10;;;2.00;;
15643;SDS011;7921;43.586;1.408;2023-06-05T10:42:31;3.45;;;2.50;;
15643;SDS011;7921;43.586;1.408;2023-06-05T10:44:58;2.05;;;1.95;;
15643;SDS011;7921;43.586;1.408;2023-06-05T10:52:43;2.25;;;2.00;;
15643;SDS011;7921;43.586;1.408;2023-06-05T10:55:09;2.20;;;1.90;;
15643;SDS011;7921;43.586;1.408;2023-06-05T11:00:21;2.92;;;1.83;;
15643;SDS011;7921;43.586;1.408;2023-06-05T11:02:47;2.50;;;2.33;;
15643;SDS011;7921;43.586;1.408;2023-06-05T11:05:13;3.58;;;2.00;;
15643;SDS011;7921;43.586;1.408;2023-06-05T11:07:38;3.33;;;2.08;;
15643;SDS011;7921;43.586;1.408;2023-06-05T11:10:05;2.08;;;1.77;;
15643;SDS011;7921;43.586;1.408;2023-06-05T11:15:01;2.80;;;1.95;;
15643;SDS011;7921;43.586;1.408;2023-06-05T11:19:56;3.42;;;2.28;;
15643;SDS011;7921;43.586;1.408;2023-06-05T11:22:22;2.75;;;2.55;;
15643;SDS011;7921;43.586;1.408;2023-06-05T11:25:23;2.15;;;1.67;;
15643;SDS011;7921;43.586;1.408;2023-06-05T11:30:17;2.03;;;1.85;;
15643;SDS011;7921;43.586;1.408;2023-06-05T11:32:44;2.42;;;2.22;;
15643;SDS011;7921;43.586;1.408;2023-06-05T11:35:10;1.95;;;1.77;;
15643;SDS011;7921;43.586;1.408;2023-06-05T11:37:36;2.38;;;1.90;;
15643;SDS011;7921;43.586;1.408;2023-06-05T11:40:05;2.88;;;2.67;;
15643;SDS011;7921;43.586;1.408;2023-06-05T11:42:37;2.13;;;1.80;;
15643;SDS011;7921;43.586;1.408;2023-06-05T11:45:12;2.13;;;1.92;;
15643;SDS011;7921;43.586;1.408;2023-06-05T11:47:38;1.77;;;1.67;;
15643;SDS011;7921;43.586;1.408;2023-06-05T11:50:11;1.90;;;1.70;;
15643;SDS011;7921;43.586;1.408;2023-06-05T11:52:39;1.98;;;1.88;;
15643;SDS011;7921;43.586;1.408;2023-06-05T11:55:14;2.30;;;2.10;;
15643;SDS011;7921;43.586;1.408;2023-06-05T11:57:41;1.98;;;1.88;;
15643;SDS011;7921;43.586;1.408;2023-06-05T12:00:10;1.92;;;1.83;;
15643;SDS011;7921;43.586;1.408;2023-06-05T12:02:36;1.70;;;1.60;;
15643;SDS011;7921;43.586;1.408;2023-06-05T12:05:02;2.17;;;1.80;;
15643;SDS011;7921;43.586;1.408;2023-06-05T12:07:31;2.53;;;2.00;;
15643;SDS011;7921;43.586;1.408;2023-06-05T12:10:01;2.13;;;2.03;;
15643;SDS011;7921;43.586;1.408;2023-06-05T12:12:28;2.00;;;1.90;;
15643;SDS011;7921;43.586;1.408;2023-06-05T12:14:54;2.63;;;1.50;;
15643;SDS011;7921;43.586;1.408;2023-06-05T12:17:20;4.15;;;1.65;;
15643;SDS011;7921;43.586;1.408;2023-06-05T12:19:53;1.70;;;1.58;;
15643;SDS011;7921;43.586;1.408;2023-06-05T12:22:19;3.17;;;2.00;;
15643;SDS011;7921;43.586;1.408;2023-06-05T12:24:45;1.85;;;1.73;;
15643;SDS011;7921;43.586;1.408;2023-06-05T12:27:11;2.22;;;1.75;;
15643;SDS011;7921;43.586;1.408;2023-06-05T12:29:37;1.92;;;1.83;;
15643;SDS011;7921;43.586;1.408;2023-06-05T12:32:20;1.75;;;1.58;;
15643;SDS011;7921;43.586;1.408;2023-06-05T12:34:47;2.88;;;2.03;;
15643;SDS011;7921;43.586;1.408;2023-06-05T12:37:25;2.40;;;1.75;;
15643;SDS011;7921;43.586;1.408;2023-06-05T12:39:59;1.88;;;1.73;;
15643;SDS011;7921;43.586;1.408;2023-06-05T12:42:26;2.20;;;2.00;;
15643;SDS011;7921;43.586;1.408;2023-06-05T12:44:53;1.90;;;1.80;;
15643;SDS011;7921;43.586;1.408;2023-06-05T12:47:18;1.58;;;1.48;;
15643;SDS011;7921;43.586;1.408;2023-06-05T12:49:44;2.03;;;1.73;;
15643;SDS011;7921;43.586;1.408;2023-06-05T12:52:10;1.50;;;1.40;;
15643;SDS011;7921;43.586;1.408;2023-06-05T12:54:36;2.08;;;1.80;;
15643;SDS011;7921;43.586;1.408;2023-06-05T12:57:01;2.00;;;1.88;;
15643;SDS011;7921;43.586;1.408;2023-06-05T12:59:27;1.88;;;1.77;;
15643;SDS011;7921;43.586;1.408;2023-06-05T13:01:52;1.80;;;1.70;;
15643;SDS011;7921;43.586;1.408;2023-06-05T13:04:18;1.73;;;1.63;;
15643;SDS011;7921;43.586;1.408;2023-06-05T13:06:43;2.72;;;1.70;;
15643;SDS011;7921;43.586;1.408;2023-06-05T13:09:09;1.70;;;1.60;;
15643;SDS011;7921;43.586;1.408;2023-06-05T13:11:34;2.70;;;1.63;;
15643;SDS011;7921;43.586;1.408;2023-06-05T13:14:00;1.45;;;1.35;;
15643;SDS011;7921;43.586;1.408;2023-06-05T13:16:25;2.30;;;1.30;;
15643;SDS011;7921;43.586;1.408;2023-06-05T13:18:51;1.48;;;1.38;;
15643;SDS011;7921;43.586;1.408;2023-06-05T13:21:17;1.70;;;1.60;;
15643;SDS011;7921;43.586;1.408;2023-06-05T13:23:42;1.48;;;1.38;;
15643;SDS011;7921;43.586;1.408;2023-06-05T13:26:07;1.50;;;1.40;;
15643;SDS011;7921;43.586;1.408;2023-06-05T13:28:33;1.73;;;1.63;;
15643;SDS011;7921;43.586;1.408;2023-06-05T13:30:58;3.25;;;1.77;;
15643;SDS011;7921;43.586;1.408;2023-06-05T13:33:24;2.28;;;1.65;;
15643;SDS011;7921;43.586;1.408;2023-06-05T13:35:52;1.50;;;1.40;;
15643;SDS011;7921;43.586;1.408;2023-06-05T13:38:19;1.55;;;1.40;;
15643;SDS011;7921;43.586;1.408;2023-06-05T13:40:45;1.50;;;1.40;;
15643;SDS011;7921;43.586;1.408;2023-06-05T13:43:14;1.30;;;1.08;;
15643;SDS011;7921;43.586;1.408;2023-06-05T13:45:39;1.30;;;1.20;;
15643;SDS011;7921;43.586;1.408;2023-06-05T13:48:05;1.98;;;1.20;;
15643;SDS011;7921;43.586;1.408;2023-06-05T13:50:30;1.48;;;1.38;;
15643;SDS011;7921;43.586;1.408;2023-06-05T13:52:56;1.75;;;1.20;;
15643;SDS011;7921;43.586;1.408;2023-06-05T13:55:21;1.23;;;1.13;;
15643;SDS011;7921;43.586;1.408;2023-06-05T13:57:47;1.00;;;1.00;;
15643;SDS011;7921;43.586;1.408;2023-06-05T14:00:12;1.50;;;1.40;;
15643;SDS011;7921;43.586;1.408;2023-06-05T14:02:39;1.30;;;1.20;;
15643;SDS011;7921;43.586;1.408;2023-06-05T14:05:05;2.05;;;1.20;;
15643;SDS011;7921;43.586;1.408;2023-06-05T14:07:33;1.05;;;0.95;;
15643;SDS011;7921;43.586;1.408;2023-06-05T14:09:59;1.48;;;1.30;;
15643;SDS011;7921;43.586;1.408;2023-06-05T14:12:24;1.30;;;1.20;;
15643;SDS011;7921;43.586;1.408;2023-06-05T14:14:50;1.67;;;1.23;;
15643;SDS011;7921;43.586;1.408;2023-06-05T14:17:16;2.80;;;1.10;;
15643;SDS011;7921;43.586;1.408;2023-06-05T14:19:41;1.55;;;1.30;;
15643;SDS011;7921;43.586;1.408;2023-06-05T14:22:06;1.30;;;1.20;;
15643;SDS011;7921;43.586;1.408;2023-06-05T14:24:33;1.33;;;1.23;;
15643;SDS011;7921;43.586;1.408;2023-06-05T14:26:58;1.33;;;1.10;;
15643;SDS011;7921;43.586;1.408;2023-06-05T14:29:24;1.73;;;1.58;;
15643;SDS011;7921;43.586;1.408;2023-06-05T14:31:49;1.25;;;0.90;;
15643;SDS011;7921;43.586;1.408;2023-06-05T14:34:15;1.30;;;1.20;;
15643;SDS011;7921;43.586;1.408;2023-06-05T14:36:41;1.48;;;1.10;;
15643;SDS011;7921;43.586;1.408;2023-06-05T14:39:07;0.98;;;0.98;;
15643;SDS011;7921;43.586;1.408;2023-06-05T14:41:32;1.15;;;1.05;;
15643;SDS011;7921;43.586;1.408;2023-06-05T14:43:58;1.30;;;1.20;;
15643;SDS011;7921;43.586;1.408;2023-06-05T14:46:23;1.85;;;1.20;;
15643;SDS011;7921;43.586;1.408;2023-06-05T14:48:49;1.40;;;1.30;;
15643;SDS011;7921;43.586;1.408;2023-06-05T14:51:15;1.10;;;1.00;;
15643;SDS011;7921;43.586;1.408;2023-06-05T14:53:41;1.25;;;1.15;;
15643;SDS011;7921;43.586;1.408;2023-06-05T14:56:07;1.75;;;1.20;;
15643;SDS011;7921;43.586;1.408;2023-06-05T14:58:32;1.98;;;1.00;;
15643;SDS011;7921;43.586;1.408;2023-06-05T15:00:58;1.75;;;1.30;;
15643;SDS011;7921;43.586;1.408;2023-06-05T15:03:23;1.73;;;1.00;;
15643;SDS011;7921;43.586;1.408;2023-06-05T15:05:48;1.20;;;1.10;;
15643;SDS011;7921;43.586;1.408;2023-06-05T15:08:14;1.67;;;1.50;;
15643;SDS011;7921;43.586;1.408;2023-06-05T15:10:39;1.00;;;1.00;;
15643;SDS011;7921;43.586;1.408;2023-06-05T15:13:05;1.30;;;1.20;;
15643;SDS011;7921;43.586;1.408;2023-06-05T15:15:30;1.75;;;1.20;;
15643;SDS011;7921;43.586;1.408;2023-06-05T15:17:55;1.83;;;1.50;;
15643;SDS011;7921;43.586;1.408;2023-06-05T15:20:21;1.50;;;1.40;;
15643;SDS011;7921;43.586;1.408;2023-06-05T15:22:48;1.50;;;1.00;;
15643;SDS011;7921;43.586;1.408;2023-06-05T15:25:13;1.95;;;1.00;;